Time;durP1;ratioP1;P1;durP2;ratioP2;P2;SDS_P1;SDS_P2;PMS_P1;PMS_P2;Temp;Humidity;BMP_temperature;BMP_pressure;BME280_temperature;BME280_humidity;BME280_pressure;Samples;Min_cycle;Max_cycle;Signal;HPM_P1;HPM_P2
2023/06/19 00:02:10;;;;;;;8.13;5.10;;;16.40;99.90;16.40;100412.00;;;;4972545;28;111628;-69
2023/06/19 00:04:35;;;;;;;7.22;5.32;;;16.30;99.90;16.30;100417.00;;;;4973601;28;108225;-69
2023/06/19 00:07:01;;;;;;;6.05;5.43;;;16.30;99.90;16.30;100408.00;;;;4968385;28;117006;-69
2023/06/19 00:09:27;;;;;;;6.85;5.30;;;16.20;99.90;16.30;100403.00;;;;4968550;28;116890;-69
2023/06/19 00:11:52;;;;;;;7.30;4.68;;;16.20;99.90;16.20;100404.00;;;;4969016;28;110253;-69
2023/06/19 00:14:18;;;;;;;5.45;4.68;;;16.20;99.90;16.20;100410.00;;;;4969443;28;94670;-69
2023/06/19 00:16:44;;;;;;;5.75;5.10;;;16.20;99.90;16.20;100412.00;;;;4971938;28;117836;-68
2023/06/19 00:19:11;;;;;;;6.15;5.18;;;16.20;99.90;16.20;100405.00;;;;4969736;28;103156;-69
2023/06/19 00:21:38;;;;;;;12.18;5.65;;;16.20;99.90;16.30;100395.00;;;;4972895;28;87814;-68
2023/06/19 00:24:04;;;;;;;6.25;4.55;;;16.10;99.90;16.30;100408.00;;;;4973437;28;87840;-68
2023/06/19 00:26:30;;;;;;;5.80;5.15;;;16.20;99.90;16.30;100392.00;;;;4953962;28;90735;-68
2023/06/19 00:28:57;;;;;;;7.28;6.07;;;16.20;99.90;16.30;100392.00;;;;4972114;28;89821;-68
2023/06/19 00:31:22;;;;;;;6.70;5.05;;;16.20;99.90;16.30;100387.00;;;;4972687;28;101776;-68
2023/06/19 00:33:48;;;;;;;7.22;6.35;;;16.20;99.90;16.30;100397.00;;;;4972815;28;108853;-68
2023/06/19 00:36:19;;;;;;;5.07;4.53;;;16.30;99.90;16.30;100392.00;;;;4972413;28;87933;-68
2023/06/19 00:38:45;;;;;;;8.55;5.55;;;16.30;99.90;16.30;100386.00;;;;4972607;28;88883;-68
2023/06/19 00:41:11;;;;;;;6.68;5.68;;;16.20;99.90;16.30;100391.00;;;;4972403;28;110741;-68
2023/06/19 00:43:37;;;;;;;9.13;5.38;;;16.30;99.90;16.30;100394.00;;;;4954057;28;91516;-69
2023/06/19 00:46:04;;;;;;;9.48;5.95;;;16.30;99.90;16.30;100401.00;;;;4955846;28;88078;-68
2023/06/19 00:48:31;;;;;;;18.35;5.68;;;16.20;99.90;16.20;100394.00;;;;4956412;28;89359;-69
2023/06/19 00:50:57;;;;;;;6.20;5.03;;;16.10;99.90;16.10;100383.00;;;;4971368;28;101794;-69
2023/06/19 00:53:25;;;;;;;7.90;5.68;;;16.10;99.90;16.00;100388.00;;;;4974802;28;87925;-68
2023/06/19 00:55:51;;;;;;;6.20;5.25;;;16.00;99.90;16.00;100388.00;;;;4950959;28;116914;-68
2023/06/19 00:58:21;;;;;;;7.45;5.55;;;16.00;99.90;15.90;100392.00;;;;4972577;28;87838;-68
2023/06/19 01:00:48;;;;;;;6.88;5.75;;;15.90;99.90;15.90;100392.00;;;;4971121;28;87762;-68
2023/06/19 01:03:14;;;;;;;7.88;5.90;;;15.80;99.90;15.90;100397.00;;;;4971293;28;88723;-68
2023/06/19 01:05:41;;;;;;;7.47;5.30;;;15.80;99.90;15.80;100392.00;;;;4967606;28;101108;-68
2023/06/19 01:08:40;;;;;;;6.95;5.20;;;15.80;99.90;15.70;100386.00;;;;4970329;28;88798;-68
2023/06/19 01:11:07;;;;;;;7.35;6.00;;;15.70;99.90;15.80;100379.00;;;;4961692;28;87781;-68
2023/06/19 01:13:42;;;;;;;8.05;4.85;;;15.70;99.90;15.70;100373.00;;;;4969616;28;107884;-68
2023/06/19 01:16:09;;;;;;;9.35;5.75;;;15.60;99.90;15.70;100380.00;;;;4955560;28;88829;-69
2023/06/19 01:18:35;;;;;;;6.72;5.50;;;15.60;99.90;15.60;100378.00;;;;4952164;28;106331;-68
2023/06/19 01:21:12;;;;;;;7.80;6.47;;;15.60;99.90;15.60;100382.00;;;;4957980;28;87460;-68
2023/06/19 01:23:38;;;;;;;6.93;6.18;;;15.50;99.90;15.50;100387.00;;;;4929569;28;88220;-68
2023/06/19 01:26:04;;;;;;;5.88;5.00;;;15.50;99.90;15.50;100372.00;;;;4973426;28;88586;-67
2023/06/19 01:28:29;;;;;;;6.50;5.03;;;15.50;99.90;15.50;100375.00;;;;4971874;28;116306;-70
2023/06/19 01:30:57;;;;;;;8.73;6.53;;;15.40;99.90;15.50;100375.00;;;;4953172;28;110611;-70
2023/06/19 01:33:28;;;;;;;8.57;5.82;;;15.40;99.90;15.40;100378.00;;;;4953547;28;107659;-70
2023/06/19 01:35:55;;;;;;;7.95;5.93;;;15.40;99.90;15.40;100370.00;;;;4956318;28;88697;-70
2023/06/19 01:38:25;;;;;;;6.05;5.40;;;15.30;99.90;15.40;100366.00;;;;4959337;28;93648;-69
2023/06/19 01:40:53;;;;;;;9.05;5.90;;;15.30;99.90;15.30;100364.00;;;;4961620;28;88781;-70
2023/06/19 01:43:19;;;;;;;4.63;4.00;;;15.30;99.90;15.30;100360.00;;;;4961446;28;108402;-69
2023/06/19 01:45:45;;;;;;;6.50;5.10;;;15.30;99.90;15.30;100367.00;;;;4954627;28;110993;-69
2023/06/19 01:48:11;;;;;;;5.88;5.28;;;15.30;99.90;15.40;100362.00;;;;4969259;28;115707;-70
2023/06/19 01:50:37;;;;;;;9.15;5.00;;;15.30;99.90;15.40;100354.00;;;;4970855;28;111246;-69
2023/06/19 01:53:02;;;;;;;8.98;5.05;;;15.30;99.90;15.50;100353.00;;;;4970878;28;108856;-69
2023/06/19 01:55:28;;;;;;;5.78;4.63;;;15.40;99.90;15.50;100351.00;;;;4975141;28;117051;-69
2023/06/19 01:57:54;;;;;;;6.55;5.95;;;15.40;99.90;15.50;100342.00;;;;4967911;28;116082;-69
2023/06/19 02:00:19;;;;;;;6.45;5.47;;;15.40;99.90;15.50;100343.00;;;;4966654;28;110186;-69
2023/06/19 02:02:45;;;;;;;6.65;5.40;;;15.40;99.90;15.50;100347.00;;;;4973784;28;87931;-69
2023/06/19 02:05:11;;;;;;;6.60;5.50;;;15.40;99.90;15.40;100340.00;;;;4969206;28;118211;-70
2023/06/19 02:07:37;;;;;;;5.80;4.22;;;15.40;99.90;15.50;100338.00;;;;4952429;28;109925;-69
2023/06/19 02:10:03;;;;;;;5.82;5.03;;;15.40;99.90;15.50;100335.00;;;;4969706;28;87228;-69
2023/06/19 02:12:29;;;;;;;7.05;5.32;;;15.40;99.90;15.50;100321.00;;;;4970861;28;87873;-69
2023/06/19 02:14:55;;;;;;;6.43;5.28;;;15.40;99.90;15.50;100335.00;;;;4971098;28;118635;-69
2023/06/19 02:17:20;;;;;;;7.70;5.30;;;15.40;99.90;15.50;100324.00;;;;4972011;28;91968;-70
2023/06/19 02:19:46;;;;;;;6.07;5.22;;;15.40;99.90;15.60;100334.00;;;;4952432;28;110751;-69
2023/06/19 02:22:12;;;;;;;8.40;5.72;;;15.50;99.90;15.60;100336.00;;;;4968050;28;107611;-70
2023/06/19 02:24:39;;;;;;;6.82;5.78;;;15.50;99.90;15.60;100337.00;;;;4958306;28;116198;-69
2023/06/19 02:27:05;;;;;;;6.05;5.15;;;15.50;99.90;15.60;100332.00;;;;4974345;28;88707;-69
2023/06/19 02:29:33;;;;;;;5.65;5.07;;;15.50;99.90;15.60;100337.00;;;;4975798;28;101886;-69
2023/06/19 02:31:59;;;;;;;6.25;5.57;;;15.50;99.90;15.60;100340.00;;;;4971651;28;88010;-70
2023/06/19 02:34:25;;;;;;;5.32;4.38;;;15.50;99.90;15.60;100325.00;;;;4970766;28;108860;-69
2023/06/19 02:36:51;;;;;;;6.65;5.93;;;15.50;99.90;15.50;100322.00;;;;4975275;28;87860;-70
2023/06/19 02:39:18;;;;;;;5.35;4.85;;;15.50;99.90;15.50;100322.00;;;;4971785;28;110763;-69
2023/06/19 02:41:45;;;;;;;8.05;5.55;;;15.40;99.90;15.50;100324.00;;;;4974280;28;88886;-69
2023/06/19 02:44:12;;;;;;;6.03;5.28;;;15.40;99.90;15.40;100324.00;;;;4971831;28;89116;-69
2023/06/19 02:46:38;;;;;;;8.85;4.82;;;15.40;99.90;15.40;100325.00;;;;4975128;28;104627;-69
2023/06/19 02:49:03;;;;;;;5.60;4.38;;;15.40;99.90;15.40;100323.00;;;;4975668;28;111708;-69
2023/06/19 02:51:29;;;;;;;5.75;4.93;;;15.40;99.90;15.40;100320.00;;;;4975929;28;88272;-69
2023/06/19 02:53:55;;;;;;;5.95;5.20;;;15.30;99.90;15.40;100319.00;;;;4972956;28;117038;-70
2023/06/19 02:56:21;;;;;;;5.22;4.22;;;15.30;99.90;15.40;100317.00;;;;4957228;28;117690;-69
2023/06/19 02:58:47;;;;;;;9.20;6.53;;;15.30;99.90;15.30;100323.00;;;;4975570;28;92116;-69
2023/06/19 03:01:12;;;;;;;8.15;5.88;;;15.30;99.90;15.30;100314.00;;;;4971709;28;87951;-69
2023/06/19 03:03:38;;;;;;;6.70;5.40;;;15.20;99.90;15.30;100325.00;;;;4973124;28;88762;-69
2023/06/19 03:06:08;;;;;;;7.40;5.93;;;15.20;99.90;15.30;100324.00;;;;4974940;28;88708;-69
2023/06/19 03:08:34;;;;;;;7.47;5.53;;;15.20;99.90;15.20;100339.00;;;;4971970;28;109979;-70
2023/06/19 03:11:04;;;;;;;9.85;5.55;;;15.20;99.90;15.20;100334.00;;;;4976109;28;87895;-70
2023/06/19 03:13:52;;;;;;;7.57;6.55;;;15.20;99.90;15.20;100334.00;;;;4974677;28;88753;-69
2023/06/19 03:16:19;;;;;;;7.50;5.65;;;15.20;99.90;15.20;100331.00;;;;4971382;28;87975;-70
2023/06/19 03:18:45;;;;;;;7.13;5.40;;;15.20;99.90;15.30;100324.00;;;;4978066;28;87921;-68
2023/06/19 03:21:12;;;;;;;8.23;5.95;;;15.20;99.90;15.30;100317.00;;;;4975048;28;87747;-70
2023/06/19 03:23:37;;;;;;;9.07;5.70;;;15.20;99.90;15.40;100314.00;;;;4975403;28;87693;-68
2023/06/19 03:26:03;;;;;;;6.65;5.80;;;15.20;99.90;15.40;100307.00;;;;4975659;28;115527;-68
2023/06/19 03:28:29;;;;;;;5.93;5.00;;;15.30;99.90;15.30;100314.00;;;;4978957;28;110853;-68
2023/06/19 03:30:55;;;;;;;5.53;4.97;;;15.30;99.90;15.40;100314.00;;;;4957709;28;95443;-68
2023/06/19 03:33:20;;;;;;;7.10;5.10;;;15.30;99.90;15.40;100312.00;;;;4968980;28;118020;-69
2023/06/19 03:35:46;;;;;;;10.87;6.47;;;15.30;99.90;15.40;100321.00;;;;4971188;28;117071;-68
2023/06/19 03:38:12;;;;;;;7.30;6.32;;;15.30;99.90;15.40;100321.00;;;;4976110;28;87889;-68
2023/06/19 03:40:38;;;;;;;8.20;5.72;;;15.40;99.90;15.50;100318.00;;;;4970576;28;87912;-68
2023/06/19 03:43:03;;;;;;;6.95;5.28;;;15.40;99.90;15.50;100324.00;;;;4972319;28;88755;-68
2023/06/19 03:45:29;;;;;;;7.82;5.57;;;15.40;99.90;15.50;100326.00;;;;4972288;28;117353;-68
2023/06/19 03:47:55;;;;;;;8.68;6.07;;;15.40;99.90;15.50;100324.00;;;;4972071;28;87070;-68
2023/06/19 03:50:20;;;;;;;6.60;5.20;;;15.40;99.90;15.50;100321.00;;;;4958429;28;108641;-70
2023/06/19 03:52:46;;;;;;;8.43;6.32;;;15.40;99.90;15.60;100324.00;;;;4974573;28;115493;-68
2023/06/19 03:55:11;;;;;;;6.50;4.82;;;15.50;99.90;15.60;100324.00;;;;4971129;28;116589;-70
2023/06/19 03:57:37;;;;;;;8.77;7.25;;;15.50;99.90;15.60;100320.00;;;;4969476;28;108921;-68
2023/06/19 04:00:07;;;;;;;8.13;6.45;;;15.50;99.90;15.70;100330.00;;;;4968935;28;108289;-70
2023/06/19 04:02:34;;;;;;;6.55;5.72;;;15.50;99.90;15.70;100335.00;;;;4957531;28;89326;-69
2023/06/19 04:04:59;;;;;;;8.95;6.22;;;15.60;99.90;15.70;100332.00;;;;4975177;28;88018;-68
2023/06/19 04:07:25;;;;;;;8.38;7.10;;;15.60;99.90;15.80;100334.00;;;;4973100;28;105030;-68
2023/06/19 04:09:50;;;;;;;6.93;6.22;;;15.70;99.90;15.90;100334.00;;;;4944775;28;108358;-69
2023/06/19 04:12:16;;;;;;;6.65;5.45;;;15.70;99.90;15.90;100332.00;;;;4952672;28;116084;-68
2023/06/19 04:14:42;;;;;;;6.82;5.25;;;15.80;99.90;16.00;100332.00;;;;4971435;28;117924;-70
2023/06/19 04:17:07;;;;;;;10.02;6.47;;;15.90;99.90;16.10;100323.00;;;;4956902;28;100346;-70
2023/06/19 04:19:33;;;;;;;8.30;6.03;;;15.90;99.90;16.20;100325.00;;;;4968383;28;108353;-70
2023/06/19 04:21:59;;;;;;;8.73;6.38;;;16.00;99.90;16.30;100333.00;;;;4973742;28;116414;-70
2023/06/19 04:24:25;;;;;;;7.90;6.65;;;16.10;99.90;16.30;100333.00;;;;4971001;28;98755;-69
2023/06/19 04:26:51;;;;;;;7.65;6.88;;;16.20;99.90;16.40;100326.00;;;;4974567;28;87893;-69
2023/06/19 04:29:16;;;;;;;7.35;5.78;;;16.30;99.90;16.50;100331.00;;;;4974305;28;88155;-70
2023/06/19 04:31:46;;;;;;;9.60;7.07;;;16.40;99.90;16.70;100342.00;;;;4969974;28;88067;-69
2023/06/19 04:34:16;;;;;;;9.50;6.40;;;16.50;99.90;16.80;100325.00;;;;4973304;28;88646;-70
2023/06/19 04:36:41;;;;;;;9.93;6.05;;;16.60;99.90;16.90;100337.00;;;;4958516;28;87291;-69
2023/06/19 04:39:07;;;;;;;7.03;5.80;;;16.70;99.90;17.00;100353.00;;;;4973827;28;109412;-69
2023/06/19 04:41:33;;;;;;;6.30;5.68;;;16.80;99.90;17.10;100345.00;;;;4971909;28;89215;-69
2023/06/19 04:44:03;;;;;;;7.70;5.32;;;16.90;99.90;17.10;100358.00;;;;4968533;28;117916;-71
2023/06/19 04:46:28;;;;;;;8.13;6.30;;;17.00;99.90;17.20;100360.00;;;;4969689;28;88751;-69
2023/06/19 04:48:55;;;;;;;6.50;5.65;;;17.00;99.90;17.30;100355.00;;;;4967357;28;108005;-69
2023/06/19 04:51:21;;;;;;;7.95;5.57;;;17.10;99.90;17.50;100361.00;;;;4967250;28;88689;-70
2023/06/19 04:53:47;;;;;;;8.07;5.63;;;17.30;99.90;17.50;100355.00;;;;4966696;28;88716;-70
2023/06/19 04:56:14;;;;;;;6.85;5.80;;;17.30;99.90;17.60;100362.00;;;;4966770;28;89605;-70
2023/06/19 04:58:45;;;;;;;9.23;5.90;;;17.40;99.90;17.70;100353.00;;;;4949304;28;87907;-70
2023/06/19 05:01:15;;;;;;;7.85;5.72;;;17.50;99.90;17.80;100359.00;;;;4964722;28;88000;-69
2023/06/19 05:03:45;;;;;;;6.88;5.55;;;17.60;99.90;17.90;100359.00;;;;4966134;28;88083;-70
2023/06/19 05:06:11;;;;;;;7.10;5.50;;;17.70;99.90;18.00;100350.00;;;;4965610;28;87880;-69
2023/06/19 05:08:37;;;;;;;7.65;5.68;;;17.80;99.90;18.20;100349.00;;;;4968417;28;89148;-70
2023/06/19 05:11:02;;;;;;;6.18;4.15;;;17.90;99.90;18.30;100351.00;;;;4977889;28;116429;-69
2023/06/19 05:13:28;;;;;;;7.53;5.07;;;18.10;99.90;18.50;100355.00;;;;4976568;28;116741;-69
2023/06/19 05:15:55;;;;;;;10.23;5.90;;;18.30;99.90;18.70;100357.00;;;;4975341;27;87987;-69
2023/06/19 05:18:21;;;;;;;8.35;5.38;;;18.40;99.90;18.90;100359.00;;;;4971937;28;88239;-69
2023/06/19 05:20:47;;;;;;;6.65;4.80;;;18.60;99.90;19.00;100349.00;;;;4974149;28;116600;-69
2023/06/19 05:23:13;;;;;;;8.88;5.45;;;18.70;99.90;19.20;100356.00;;;;4970906;28;97236;-69
2023/06/19 05:25:43;;;;;;;7.07;4.63;;;18.90;99.90;19.40;100356.00;;;;4972351;28;110880;-69
2023/06/19 05:28:09;;;;;;;6.93;5.68;;;19.10;99.90;19.60;100363.00;;;;4973379;28;87907;-69
2023/06/19 05:30:34;;;;;;;7.20;5.57;;;19.30;99.90;19.70;100362.00;;;;4968296;28;118094;-68
2023/06/19 05:33:00;;;;;;;9.20;5.45;;;19.40;99.90;19.80;100361.00;;;;4966109;28;116772;-67
2023/06/19 05:35:26;;;;;;;6.63;5.60;;;19.50;99.90;19.80;100370.00;;;;4971546;28;110551;-69
2023/06/19 05:37:52;;;;;;;7.28;5.70;;;19.60;99.90;19.90;100369.00;;;;4973190;28;87671;-68
2023/06/19 05:40:17;;;;;;;8.32;5.75;;;19.70;99.90;19.90;100370.00;;;;4970052;28;118797;-69
2023/06/19 05:42:43;;;;;;;5.93;4.82;;;19.70;99.90;20.00;100364.00;;;;4971955;28;110592;-69
2023/06/19 05:45:10;;;;;;;6.18;5.68;;;19.80;99.90;20.00;100370.00;;;;4969673;28;87761;-69
2023/06/19 05:47:36;;;;;;;8.85;5.70;;;19.80;99.90;20.10;100371.00;;;;4971580;28;90457;-70
2023/06/19 05:50:02;;;;;;;6.50;4.40;;;19.90;99.90;20.20;100378.00;;;;4970228;28;117636;-69
2023/06/19 05:52:28;;;;;;;7.60;4.75;;;19.90;99.90;20.20;100372.00;;;;4969371;28;89830;-69
2023/06/19 05:54:53;;;;;;;5.10;4.03;;;20.00;99.90;20.30;100367.00;;;;4969448;28;110740;-69
2023/06/19 05:57:22;;;;;;;5.53;4.97;;;20.00;99.90;20.40;100370.00;;;;4970636;28;109501;-69
2023/06/19 05:59:48;;;;;;;6.93;5.55;;;20.10;99.90;20.40;100368.00;;;;4972096;28;88196;-70
2023/06/19 06:02:15;;;;;;;7.43;4.63;;;20.20;99.90;20.50;100370.00;;;;4972384;28;87960;-69
2023/06/19 06:04:40;;;;;;;8.93;5.35;;;20.20;99.90;20.50;100369.00;;;;4968329;28;87831;-69
2023/06/19 06:07:06;;;;;;;5.05;4.55;;;20.30;99.90;20.50;100376.00;;;;4969110;28;96239;-69
2023/06/19 06:09:32;;;;;;;6.22;4.32;;;20.30;99.90;20.50;100368.00;;;;4970823;28;99226;-69
2023/06/19 06:11:58;;;;;;;9.15;5.22;;;20.30;99.90;20.60;100377.00;;;;4974592;28;89016;-69
2023/06/19 06:14:25;;;;;;;5.13;4.65;;;20.30;99.90;20.60;100365.00;;;;4972262;28;89371;-70
2023/06/19 06:16:50;;;;;;;6.00;5.35;;;20.40;99.90;20.60;100362.00;;;;4968586;28;87802;-70
2023/06/19 06:19:16;;;;;;;7.88;5.72;;;20.50;99.90;20.70;100366.00;;;;4967909;28;118755;-69
2023/06/19 06:21:42;;;;;;;5.47;4.43;;;20.40;99.90;20.70;100363.00;;;;4971889;28;117529;-70
2023/06/19 06:24:08;;;;;;;6.45;4.57;;;20.50;99.90;20.80;100374.00;;;;4967933;28;87713;-70
2023/06/19 06:26:33;;;;;;;5.20;4.70;;;20.60;99.90;20.80;100369.00;;;;4968837;28;108429;-69
2023/06/19 06:28:59;;;;;;;8.70;5.15;;;20.60;99.90;20.80;100363.00;;;;4970393;28;88739;-70
2023/06/19 06:31:25;;;;;;;4.95;3.92;;;20.60;99.90;20.80;100367.00;;;;4971948;28;116478;-69
2023/06/19 06:33:50;;;;;;;6.30;5.10;;;20.60;99.90;20.90;100369.00;;;;4973246;28;109881;-70
2023/06/19 06:36:16;;;;;;;6.28;5.03;;;20.60;99.90;20.90;100367.00;;;;4970710;28;110411;-70
2023/06/19 06:38:42;;;;;;;6.15;4.63;;;20.70;99.90;20.90;100370.00;;;;4973478;28;116560;-70
2023/06/19 06:41:08;;;;;;;4.80;4.18;;;20.70;99.90;20.90;100371.00;;;;4972958;28;117750;-70
2023/06/19 06:43:34;;;;;;;8.77;4.57;;;20.70;99.90;21.00;100381.00;;;;4971319;28;110320;-70
2023/06/19 06:46:00;;;;;;;5.63;4.28;;;20.80;99.90;21.00;100386.00;;;;4970644;28;100033;-70
2023/06/19 06:48:25;;;;;;;5.82;4.97;;;20.80;99.90;21.00;100385.00;;;;4974529;28;90483;-70
2023/06/19 06:50:58;;;;;;;6.32;4.50;;;20.80;99.90;21.10;100386.00;;;;4975146;28;88350;-70
2023/06/19 06:53:25;;;;;;;6.05;5.30;;;20.90;99.90;21.10;100387.00;;;;4973510;28;88287;-70
2023/06/19 06:55:51;;;;;;;10.95;4.65;;;20.90;99.90;21.20;100395.00;;;;4974213;28;87914;-70
2023/06/19 06:58:18;;;;;;;5.88;4.20;;;20.90;99.90;21.20;100397.00;;;;4971878;28;88345;-69
2023/06/19 07:00:44;;;;;;;9.73;4.82;;;21.00;99.90;21.20;100395.00;;;;4973650;28;88919;-71
2023/06/19 07:03:11;;;;;;;6.03;4.63;;;21.00;99.90;21.30;100395.00;;;;4977308;28;87905;-70
2023/06/19 07:05:36;;;;;;;9.73;5.68;;;21.10;99.90;21.40;100391.00;;;;4958796;28;101553;-70
2023/06/19 07:08:03;;;;;;;5.32;4.30;;;21.10;99.90;21.40;100393.00;;;;4951466;28;118766;-70
2023/06/19 07:10:30;;;;;;;6.50;4.53;;;21.20;99.90;21.60;100396.00;;;;4954669;28;88923;-70
2023/06/19 07:12:56;;;;;;;5.57;3.97;;;21.30;99.90;21.70;100407.00;;;;4953925;28;103532;-70
2023/06/19 07:15:21;;;;;;;6.13;4.82;;;21.40;99.90;21.70;100406.00;;;;4954595;28;87801;-71
2023/06/19 07:17:47;;;;;;;5.43;3.60;;;21.50;99.90;21.90;100405.00;;;;4937195;28;117277;-70
2023/06/19 07:20:14;;;;;;;5.97;4.43;;;21.60;99.90;22.00;100400.00;;;;4955625;28;88065;-70
2023/06/19 07:22:41;;;;;;;5.93;3.83;;;21.70;99.90;22.10;100401.00;;;;4954418;28;87895;-70
2023/06/19 07:25:08;;;;;;;4.82;4.15;;;21.90;99.90;22.30;100391.00;;;;4918177;28;87908;-70
2023/06/19 07:27:33;;;;;;;4.95;3.90;;;22.00;99.90;22.40;100390.00;;;;4959750;28;88171;-70
2023/06/19 07:29:59;;;;;;;4.18;3.78;;;22.10;99.90;22.50;100398.00;;;;4954398;28;88143;-70
2023/06/19 07:32:25;;;;;;;5.55;4.05;;;22.20;99.90;22.60;100389.00;;;;4952983;28;111737;-70
2023/06/19 07:34:51;;;;;;;7.07;4.57;;;22.30;99.90;22.70;100389.00;;;;4951658;28;108301;-70
2023/06/19 07:37:20;;;;;;;4.97;2.95;;;22.40;99.90;22.80;100399.00;;;;4951668;28;118375;-72
2023/06/19 07:39:47;;;;;;;3.58;3.28;;;22.50;99.40;22.90;100400.00;;;;4954135;28;88706;-72
2023/06/19 07:42:14;;;;;;;6.95;4.03;;;22.60;98.80;22.90;100397.00;;;;4950292;28;88510;-72
2023/06/19 07:44:40;;;;;;;5.15;3.55;;;22.60;97.60;23.00;100393.00;;;;4935941;28;88225;-71
2023/06/19 07:47:07;;;;;;;5.07;3.10;;;22.70;97.10;23.10;100402.00;;;;4938071;28;99429;-70
2023/06/19 07:49:33;;;;;;;3.72;3.28;;;22.80;96.00;23.10;100406.00;;;;4936325;28;88444;-72
2023/06/19 07:51:59;;;;;;;3.30;2.78;;;22.90;95.40;23.20;100403.00;;;;4950991;28;88943;-72
2023/06/19 07:54:25;;;;;;;3.58;2.90;;;22.90;95.60;23.40;100406.00;;;;4951354;28;99898;-70
2023/06/19 07:56:50;;;;;;;3.92;3.03;;;23.10;95.10;23.50;100409.00;;;;4951882;28;88269;-72
2023/06/19 07:59:16;;;;;;;4.00;3.38;;;23.20;94.50;23.70;100402.00;;;;4948213;28;116960;-72
2023/06/19 08:01:43;;;;;;;4.82;3.40;;;23.30;93.80;23.80;100412.00;;;;4953360;28;88205;-70
2023/06/19 08:04:08;;;;;;;4.22;3.08;;;23.40;92.00;23.90;100402.00;;;;4937169;28;88241;-72
2023/06/19 08:06:34;;;;;;;3.78;2.90;;;23.50;91.50;24.00;100411.00;;;;4964425;28;117991;-72
2023/06/19 08:09:00;;;;;;;5.85;3.35;;;23.70;91.30;24.00;100413.00;;;;4970475;28;117197;-72
2023/06/19 08:11:26;;;;;;;6.65;3.72;;;23.70;91.00;24.10;100420.00;;;;4972675;28;110577;-70
2023/06/19 08:13:52;;;;;;;4.45;3.15;;;23.80;91.20;24.20;100416.00;;;;4972369;27;108429;-72
2023/06/19 08:16:18;;;;;;;5.03;2.88;;;23.90;91.10;24.40;100418.00;;;;4970724;28;117163;-72
2023/06/19 08:18:44;;;;;;;3.25;2.83;;;24.00;90.50;24.60;100423.00;;;;4970969;28;87652;-72
2023/06/19 08:21:10;;;;;;;2.47;2.20;;;24.20;90.30;24.80;100414.00;;;;4970443;28;89140;-72
2023/06/19 08:23:37;;;;;;;3.17;2.85;;;24.40;90.00;24.90;100414.00;;;;4970833;28;96511;-72
2023/06/19 08:26:03;;;;;;;2.97;2.63;;;24.50;88.90;25.10;100417.00;;;;4970389;28;88212;-72
2023/06/19 08:28:31;;;;;;;4.18;2.60;;;24.70;88.50;25.30;100422.00;;;;4972511;28;88167;-72
2023/06/19 08:30:57;;;;;;;4.13;3.08;;;24.90;87.70;25.40;100417.00;;;;4972312;28;88044;-71
2023/06/19 08:33:23;;;;;;;2.80;2.60;;;25.00;85.40;25.50;100425.00;;;;4968661;28;108473;-70
2023/06/19 08:35:48;;;;;;;5.30;3.47;;;25.20;84.60;25.70;100410.00;;;;4970821;28;117289;-72
2023/06/19 08:38:14;;;;;;;3.85;3.13;;;25.30;83.10;26.00;100410.00;;;;4972991;28;117121;-70
2023/06/19 08:40:43;;;;;;;9.10;3.03;;;25.50;81.60;26.20;100413.00;;;;4973555;28;110100;-70
2023/06/19 08:43:08;;;;;;;4.65;3.03;;;25.80;80.70;26.40;100416.00;;;;4975717;28;88015;-71
2023/06/19 08:45:34;;;;;;;3.83;2.90;;;26.10;80.40;26.60;100418.00;;;;4959226;28;118167;-69
2023/06/19 08:48:03;;;;;;;5.10;3.53;;;26.20;79.00;26.70;100417.00;;;;4977778;28;117470;-70
2023/06/19 08:50:32;;;;;;;2.92;2.58;;;26.30;78.30;26.80;100419.00;;;;4956528;28;87805;-69
2023/06/19 08:52:58;;;;;;;3.85;2.60;;;26.40;77.40;26.90;100416.00;;;;4954752;28;92834;-72
2023/06/19 08:55:25;;;;;;;3.40;2.95;;;26.50;75.10;26.90;100417.00;;;;4969417;28;95850;-68
2023/06/19 08:57:52;;;;;;;3.67;2.97;;;26.60;72.90;26.90;100414.00;;;;4971917;28;97619;-70
2023/06/19 09:00:29;;;;;;;6.55;3.53;;;26.60;71.30;27.00;100418.00;;;;4970155;28;87939;-70
2023/06/19 09:03:03;;;;;;;5.53;3.13;;;26.70;72.00;27.20;100421.00;;;;4977998;28;87612;-70
2023/06/19 09:05:29;;;;;;;4.63;3.33;;;26.80;72.00;27.50;100418.00;;;;4960880;28;87401;-71
2023/06/19 09:07:58;;;;;;;4.18;2.75;;;27.00;71.60;27.70;100416.00;;;;4952239;28;116539;-70
2023/06/19 09:10:24;;;;;;;6.43;3.00;;;27.30;71.40;27.90;100424.00;;;;4950617;28;87978;-70
2023/06/19 09:13:01;;;;;;;5.97;3.45;;;27.50;70.50;28.10;100418.00;;;;4952690;28;97800;-70
2023/06/19 09:15:30;;;;;;;3.65;2.35;;;27.70;69.60;28.30;100419.00;;;;4934667;28;89545;-73
2023/06/19 09:18:08;;;;;;;7.95;3.03;;;27.90;69.00;28.60;100426.00;;;;4950992;28;87849;-73
2023/06/19 09:20:43;;;;;;;4.80;4.13;;;28.10;68.40;28.80;100415.00;;;;4929681;28;88067;-73
2023/06/19 09:23:11;;;;;;;4.07;3.25;;;28.30;67.50;29.00;100423.00;;;;4948569;28;87894;-74
2023/06/19 09:25:52;;;;;;;4.80;3.13;;;28.50;66.20;29.20;100421.00;;;;4909537;28;89337;-76
2023/06/19 09:28:27;;;;;;;4.30;3.10;;;28.70;64.70;29.30;100418.00;;;;4925975;28;88230;-74
2023/06/19 09:31:05;;;;;;;3.17;2.75;;;28.80;62.00;29.30;100410.00;;;;4955500;28;98629;-76
2023/06/19 09:33:33;;;;;;;3.75;2.83;;;28.90;61.70;29.30;100415.00;;;;4949723;28;87863;-73
2023/06/19 09:36:01;;;;;;;3.10;2.67;;;28.90;61.30;29.40;100416.00;;;;4950799;28;110261;-74
2023/06/19 09:38:38;;;;;;;2.47;2.28;;;29.00;61.30;29.50;100412.00;;;;4950869;28;106013;-75
2023/06/19 09:41:06;;;;;;;4.50;2.95;;;29.00;59.70;29.60;100407.00;;;;4929328;28;88124;-75
2023/06/19 09:43:44;;;;;;;3.17;2.67;;;29.20;59.40;29.70;100415.00;;;;4953224;28;88000;-75
2023/06/19 09:46:11;;;;;;;3.50;2.92;;;29.30;58.60;29.80;100412.00;;;;4930770;28;103845;-74
2023/06/19 09:48:43;;;;;;;2.72;2.45;;;29.40;57.20;29.70;100410.00;;;;4937264;28;88012;-74
2023/06/19 09:51:19;;;;;;;3.30;3.00;;;29.30;55.30;29.50;100399.00;;;;4952021;28;87918;-76
2023/06/19 09:53:48;;;;;;;3.88;2.67;;;29.30;54.00;29.50;100396.00;;;;4931004;28;87948;-78
2023/06/19 09:56:15;;;;;;;5.07;2.53;;;29.10;55.00;29.50;100401.00;;;;4941378;28;87503;-74
2023/06/19 09:58:43;;;;;;;4.30;2.72;;;29.10;54.60;29.50;100406.00;;;;4951235;28;87921;-78
2023/06/19 10:01:09;;;;;;;4.28;3.15;;;29.10;54.80;29.50;100397.00;;;;4936956;28;88537;-75
2023/06/19 10:03:36;;;;;;;4.32;2.70;;;29.10;54.70;29.50;100405.00;;;;4912761;28;109449;-74
2023/06/19 10:06:04;;;;;;;3.38;2.25;;;29.10;54.80;29.60;100400.00;;;;4947847;28;88157;-74
2023/06/19 10:08:39;;;;;;;7.68;3.47;;;29.20;55.30;29.70;100394.00;;;;4950745;28;88840;-74
2023/06/19 10:11:04;;;;;;;4.90;2.83;;;29.30;55.40;29.80;100394.00;;;;4937447;28;87905;-78
2023/06/19 10:13:39;;;;;;;4.35;2.60;;;29.40;54.70;29.90;100389.00;;;;4949536;28;108178;-77
2023/06/19 10:16:06;;;;;;;3.30;2.95;;;29.50;54.50;29.90;100393.00;;;;4914275;28;89412;-77
2023/06/19 10:18:33;;;;;;;5.43;3.40;;;29.50;53.20;30.00;100391.00;;;;4937424;28;105131;-78
2023/06/19 10:20:59;;;;;;;3.65;3.28;;;29.50;52.80;30.10;100396.00;;;;4934280;28;86954;-77
2023/06/19 10:23:28;;;;;;;6.20;3.42;;;29.60;53.10;30.30;100405.00;;;;4933165;28;108392;-78
2023/06/19 10:25:53;;;;;;;5.13;3.03;;;29.80;53.20;30.50;100400.00;;;;4951446;28;88498;-78
2023/06/19 10:28:22;;;;;;;4.25;2.55;;;29.90;52.70;30.70;100410.00;;;;4950563;28;88909;-79
2023/06/19 10:31:05;;;;;;;6.07;2.75;;;30.10;52.90;30.80;100403.00;;;;4957201;28;96992;-78
2023/06/19 10:33:37;;;;;;;2.97;2.28;;;30.40;52.50;31.00;100408.00;;;;4933167;28;88451;-78
2023/06/19 10:36:25;;;;;;;2.72;1.90;;;30.50;52.40;31.20;100408.00;;;;4910225;28;89978;-78
2023/06/19 10:38:51;;;;;;;5.28;3.65;;;30.70;52.30;31.40;100412.00;;;;4912903;28;89657;-78
2023/06/19 10:41:18;;;;;;;2.78;2.45;;;30.90;51.50;31.30;100413.00;;;;4925547;28;103358;-75
2023/06/19 10:44:03;;;;;;;4.90;2.95;;;30.90;51.00;31.00;100412.00;;;;4940083;28;87894;-75
2023/06/19 10:46:35;;;;;;;3.85;3.40;;;30.80;51.00;30.80;100412.00;;;;4921762;28;89773;-76